createdAt,value
2018-12-20T00:00:40.992Z,1.80
2018-12-20T00:03:08.448Z,1.60
2018-12-20T00:05:35.952Z,1.90
2018-12-20T00:08:03.499Z,1.30
2018-12-20T00:10:31.098Z,0.87
2018-12-20T00:12:58.623Z,1.50
2018-12-20T00:15:26.179Z,1.20
2018-12-20T00:17:53.770Z,1.10
2018-12-20T00:20:21.333Z,2.03
2018-12-20T00:22:48.834Z,1.53
2018-12-20T00:25:16.672Z,1.33
2018-12-20T00:27:44.350Z,1.50
2018-12-20T00:30:11.962Z,2.93
2018-12-20T00:32:39.564Z,3.30
2018-12-20T00:35:07.178Z,2.07
2018-12-20T00:37:34.907Z,2.23
2018-12-20T00:40:06.435Z,2.27
2018-12-20T00:42:31.957Z,3.10
2018-12-20T00:44:59.723Z,2.03
2018-12-20T00:47:27.351Z,2.50
2018-12-20T00:49:54.856Z,2.40
2018-12-20T00:52:22.346Z,1.30
2018-12-20T00:54:49.892Z,1.80
2018-12-20T00:57:17.365Z,2.90
2018-12-20T00:59:44.840Z,2.20
2018-12-20T01:02:12.345Z,2.03
2018-12-20T01:04:39.976Z,1.93
2018-12-20T01:07:07.674Z,2.67
2018-12-20T01:09:35.246Z,2.40
2018-12-20T01:12:02.954Z,2.33
2018-12-20T01:14:30.956Z,2.37
2018-12-20T01:16:59.049Z,2.40
2018-12-20T01:19:26.872Z,1.90
2018-12-20T01:21:54.363Z,1.10
2018-12-20T01:24:21.816Z,1.77
2018-12-20T01:26:49.289Z,1.63
2018-12-20T01:29:17.065Z,2.37
2018-12-20T01:31:44.637Z,1.80
2018-12-20T01:34:12.144Z,2.00
2018-12-20T01:36:39.871Z,2.20
2018-12-20T01:39:07.404Z,1.83
2018-12-20T01:41:34.883Z,1.77
2018-12-20T01:44:02.439Z,1.27
2018-12-20T01:46:29.943Z,2.23
2018-12-20T01:48:57.490Z,2.20
2018-12-20T01:51:25.094Z,1.60
2018-12-20T01:53:52.748Z,1.07
2018-12-20T01:56:20.453Z,1.83
2018-12-20T01:58:48.073Z,1.93
2018-12-20T02:01:15.646Z,0.60
2018-12-20T02:03:43.438Z,2.43
2018-12-20T02:06:10.888Z,0.80
2018-12-20T02:08:38.377Z,1.60
2018-12-20T02:11:05.929Z,0.90
2018-12-20T02:13:33.575Z,1.63
2018-12-20T02:16:01.028Z,1.50
2018-12-20T02:18:28.627Z,1.23
2018-12-20T02:20:56.315Z,1.10
2018-12-20T02:23:24.107Z,1.80
2018-12-20T02:25:51.938Z,1.53
2018-12-20T02:28:19.471Z,0.53
2018-12-20T02:30:47.091Z,1.23
2018-12-20T02:33:14.708Z,1.40
2018-12-20T02:35:42.197Z,1.20
2018-12-20T02:38:09.795Z,1.80
2018-12-20T02:40:37.361Z,1.60
2018-12-20T02:43:04.929Z,1.63
2018-12-20T02:45:32.677Z,1.60
2018-12-20T02:48:00.265Z,1.50
2018-12-20T02:50:27.737Z,1.83
2018-12-20T02:52:55.391Z,1.30
2018-12-20T02:55:23.041Z,2.17
2018-12-20T02:57:50.573Z,1.20
2018-12-20T03:00:18.124Z,1.40
2018-12-20T03:02:45.840Z,1.37
2018-12-20T03:05:14.101Z,1.50
2018-12-20T03:07:42.474Z,1.87
2018-12-20T03:10:10.277Z,1.80
2018-12-20T03:12:38.006Z,1.00
2018-12-20T03:15:06.768Z,2.17
2018-12-20T03:17:34.480Z,1.80
2018-12-20T03:20:02.097Z,2.17
2018-12-20T03:22:30.045Z,1.87
2018-12-20T03:24:57.677Z,1.93
2018-12-20T03:27:25.431Z,1.50
2018-12-20T03:29:53.112Z,1.80
2018-12-20T03:32:23.000Z,1.23
2018-12-20T03:34:50.722Z,1.73
2018-12-20T03:37:18.572Z,2.00
2018-12-20T03:39:46.079Z,1.10
2018-12-20T03:42:13.636Z,1.63
2018-12-20T03:44:42.502Z,1.00
2018-12-20T03:47:10.490Z,2.03
2018-12-20T03:49:38.476Z,1.00
2018-12-20T03:52:06.518Z,1.30
2018-12-20T03:54:34.129Z,0.70
2018-12-20T03:57:01.669Z,1.17
2018-12-20T03:59:29.439Z,2.03
2018-12-20T04:01:56.975Z,1.40
2018-12-20T04:04:24.680Z,1.00
2018-12-20T04:06:52.462Z,0.87
2018-12-20T04:09:20.053Z,1.23
2018-12-20T04:11:47.639Z,1.33
2018-12-20T04:14:15.192Z,0.77
2018-12-20T04:16:43.111Z,0.70
2018-12-20T04:19:11.469Z,1.40
2018-12-20T04:21:38.999Z,0.80
2018-12-20T04:24:06.568Z,0.80
2018-12-20T04:26:34.372Z,0.70
2018-12-20T04:29:02.013Z,1.83
2018-12-20T04:31:29.520Z,0.70
2018-12-20T04:33:57.362Z,1.10
2018-12-20T04:36:25.183Z,0.93
2018-12-20T04:38:52.890Z,1.10
2018-12-20T04:41:21.099Z,0.87
2018-12-20T04:43:48.861Z,1.00
2018-12-20T04:46:16.331Z,1.43
2018-12-20T04:48:43.786Z,1.03
2018-12-20T04:51:11.573Z,1.13
2018-12-20T04:53:39.067Z,1.17
2018-12-20T04:56:06.544Z,1.17
2018-12-20T04:58:34.039Z,1.10
2018-12-20T05:01:01.492Z,0.60
2018-12-20T05:03:29.197Z,1.80
2018-12-20T05:05:57.160Z,0.70
2018-12-20T05:08:24.862Z,1.17
2018-12-20T05:10:52.622Z,1.13
2018-12-20T05:13:21.031Z,0.80
2018-12-20T05:15:56.000Z,1.00
2018-12-20T05:18:18.056Z,0.70
2018-12-20T05:20:45.553Z,0.80
2018-12-20T05:23:13.108Z,1.77
2018-12-20T05:25:40.633Z,0.93
2018-12-20T05:28:08.215Z,0.60
2018-12-20T05:30:35.911Z,0.57
2018-12-20T05:33:03.432Z,0.50
2018-12-20T05:35:31.207Z,0.77
2018-12-20T05:37:58.987Z,0.63
2018-12-20T05:40:26.597Z,1.00
2018-12-20T05:42:54.140Z,0.93
2018-12-20T05:45:21.653Z,0.70
2018-12-20T05:47:49.194Z,0.73
2018-12-20T05:50:16.755Z,0.87
2018-12-20T05:52:44.248Z,1.10
2018-12-20T05:55:11.961Z,1.77
2018-12-20T05:57:39.494Z,0.50
2018-12-20T06:00:08.922Z,1.07
2018-12-20T06:02:36.538Z,0.97
2018-12-20T06:05:05.504Z,0.87
2018-12-20T06:07:33.165Z,1.33
2018-12-20T06:10:00.667Z,0.60
2018-12-20T06:12:28.137Z,1.27
2018-12-20T06:14:55.633Z,0.60
2018-12-20T06:17:23.278Z,0.63
2018-12-20T06:19:52.805Z,0.67
2018-12-20T06:22:20.729Z,0.60
2018-12-20T06:24:48.625Z,0.77
2018-12-20T06:27:16.216Z,0.70
2018-12-20T06:29:43.711Z,0.70
2018-12-20T06:32:11.498Z,0.50
2018-12-20T06:34:38.962Z,0.70
2018-12-20T06:37:06.470Z,0.50
2018-12-20T06:39:34.177Z,0.50
2018-12-20T06:42:02.453Z,1.13
2018-12-20T06:44:29.930Z,1.13
2018-12-20T06:46:57.407Z,0.83
2018-12-20T06:49:24.884Z,1.00
2018-12-20T06:51:52.377Z,0.50
2018-12-20T06:54:19.832Z,0.40
2018-12-20T06:56:47.287Z,0.70
2018-12-20T06:59:14.801Z,0.60
2018-12-20T07:01:42.276Z,1.03
2018-12-20T07:04:09.971Z,0.60
2018-12-20T07:06:37.513Z,0.73
2018-12-20T07:09:07.120Z,0.70
2018-12-20T07:11:34.600Z,0.57
2018-12-20T07:14:02.060Z,0.70
2018-12-20T07:16:29.673Z,0.70
2018-12-20T07:18:57.228Z,1.37
2018-12-20T07:21:24.688Z,0.80
2018-12-20T07:23:52.169Z,0.80
2018-12-20T07:26:19.636Z,1.17
2018-12-20T07:28:47.116Z,0.80
2018-12-20T07:31:14.776Z,0.70
2018-12-20T07:33:42.240Z,0.60
2018-12-20T07:36:09.720Z,0.90
2018-12-20T07:38:37.172Z,0.50
2018-12-20T07:41:04.806Z,0.70
2018-12-20T07:43:33.201Z,0.87
2018-12-20T07:46:01.617Z,0.90
2018-12-20T07:48:32.308Z,0.90
2018-12-20T07:50:59.729Z,0.60
2018-12-20T07:53:27.504Z,0.60
2018-12-20T07:55:55.681Z,0.60
2018-12-20T07:58:23.181Z,0.50
2018-12-20T08:00:50.648Z,1.20
2018-12-20T08:03:19.369Z,0.90
2018-12-20T08:05:47.048Z,1.00
2018-12-20T08:08:15.188Z,0.90
2018-12-20T08:10:43.676Z,0.50
2018-12-20T08:13:11.203Z,0.90
2018-12-20T08:15:38.865Z,1.10
2018-12-20T08:18:08.330Z,0.60
2018-12-20T08:20:35.887Z,0.80
2018-12-20T08:23:04.024Z,1.07
2018-12-20T08:25:32.195Z,0.70
2018-12-20T08:28:00.362Z,0.43
2018-12-20T08:30:28.128Z,0.60
2018-12-20T08:32:55.820Z,0.73
2018-12-20T08:35:23.290Z,1.00
2018-12-20T08:37:50.980Z,0.90
2018-12-20T08:40:18.456Z,1.53
2018-12-20T08:42:45.908Z,0.93
2018-12-20T08:45:13.396Z,0.77
2018-12-20T08:47:40.868Z,1.00
2018-12-20T08:50:08.323Z,0.80
2018-12-20T08:52:35.815Z,0.57
2018-12-20T08:55:03.657Z,0.80
2018-12-20T08:57:31.348Z,0.97
2018-12-20T08:59:58.808Z,0.97
2018-12-20T09:02:26.260Z,0.90
2018-12-20T09:04:53.724Z,0.60
2018-12-20T09:07:21.181Z,1.27
2018-12-20T09:09:48.656Z,0.60
2018-12-20T09:12:16.157Z,0.80
2018-12-20T09:14:43.637Z,1.00
2018-12-20T09:17:11.108Z,0.80
2018-12-20T09:19:38.556Z,0.60
2018-12-20T09:22:06.037Z,0.93
2018-12-20T09:24:33.486Z,0.80
2018-12-20T09:27:00.940Z,0.50
2018-12-20T09:29:28.429Z,0.60
2018-12-20T09:31:55.889Z,1.17
2018-12-20T09:34:23.377Z,0.60
2018-12-20T09:36:50.824Z,0.60
2018-12-20T09:39:18.304Z,0.70
2018-12-20T09:41:45.772Z,0.60
2018-12-20T09:44:13.224Z,0.60
2018-12-20T09:46:40.706Z,0.90
2018-12-20T09:49:08.148Z,0.53
2018-12-20T09:51:35.624Z,1.37
2018-12-20T09:54:03.078Z,1.00
2018-12-20T09:56:30.527Z,0.83
2018-12-20T09:58:58.101Z,0.77
2018-12-20T10:01:25.564Z,0.90
2018-12-20T10:03:53.049Z,0.80
2018-12-20T10:06:20.510Z,0.57
2018-12-20T10:08:48.076Z,0.67
2018-12-20T10:11:15.541Z,0.77
2018-12-20T10:13:43.213Z,0.50
2018-12-20T10:16:10.672Z,0.53
2018-12-20T10:18:38.120Z,1.33
2018-12-20T10:21:05.604Z,0.50
2018-12-20T10:23:33.060Z,1.23
2018-12-20T10:26:00.508Z,0.90
2018-12-20T10:28:27.994Z,0.67
2018-12-20T10:30:55.437Z,0.90
2018-12-20T10:33:22.913Z,0.60
2018-12-20T10:35:50.369Z,0.73
2018-12-20T10:38:18.063Z,0.60
2018-12-20T10:40:45.539Z,0.80
2018-12-20T10:43:12.989Z,0.50
2018-12-20T10:45:40.477Z,0.57
2018-12-20T10:48:07.936Z,1.33
2018-12-20T10:50:36.360Z,0.60
2018-12-20T10:53:03.924Z,0.50
2018-12-20T10:55:31.446Z,0.60
2018-12-20T10:57:59.153Z,0.50
2018-12-20T11:00:28.589Z,0.73
2018-12-20T11:03:01.796Z,0.70
2018-12-20T11:05:34.915Z,0.57
2018-12-20T11:08:04.364Z,1.47
2018-12-20T11:10:31.859Z,1.40
2018-12-20T11:13:01.612Z,1.00
2018-12-20T11:15:29.192Z,0.57
2018-12-20T11:17:56.652Z,1.00
2018-12-20T11:20:24.124Z,0.80
2018-12-20T11:22:51.598Z,0.80
2018-12-20T11:25:21.076Z,0.90
2018-12-20T11:27:48.544Z,0.87
2018-12-20T11:30:15.999Z,0.67
2018-12-20T11:32:43.469Z,0.70
2018-12-20T11:35:10.916Z,1.83
2018-12-20T11:37:38.405Z,0.80
2018-12-20T11:40:06.047Z,0.80
2018-12-20T11:42:33.564Z,0.57
2018-12-20T11:45:01.013Z,0.50
2018-12-20T11:47:28.628Z,0.50
2018-12-20T11:49:56.097Z,0.57
2018-12-20T11:52:23.617Z,1.70
2018-12-20T11:54:51.101Z,0.77
2018-12-20T11:57:18.547Z,0.70
2018-12-20T11:59:45.997Z,0.57
2018-12-20T12:02:13.463Z,0.63
2018-12-20T12:04:40.912Z,0.80
2018-12-20T12:07:08.604Z,0.60
2018-12-20T12:09:36.074Z,0.83
2018-12-20T12:12:03.952Z,0.63
2018-12-20T12:14:31.420Z,0.50
2018-12-20T12:16:58.895Z,0.50
2018-12-20T12:19:26.370Z,0.63
2018-12-20T12:21:54.085Z,1.10
2018-12-20T12:24:21.535Z,0.80
2018-12-20T12:26:49.019Z,0.60
2018-12-20T12:29:16.472Z,1.00
2018-12-20T12:31:44.222Z,0.50
2018-12-20T12:34:11.701Z,0.40
2018-12-20T12:36:39.257Z,0.50
2018-12-20T12:39:07.548Z,1.03
2018-12-20T12:41:35.644Z,1.33
2018-12-20T12:44:03.236Z,1.87
2018-12-20T12:46:31.008Z,1.00
2018-12-20T12:48:58.481Z,0.60
2018-12-20T12:51:25.952Z,0.80
2018-12-20T12:53:53.515Z,1.00
2018-12-20T12:56:21.349Z,1.33
2018-12-20T12:58:48.804Z,1.80
2018-12-20T13:01:16.284Z,1.33
2018-12-20T13:03:43.740Z,0.50
2018-12-20T13:06:11.193Z,0.63
2018-12-20T13:08:38.683Z,0.47
2018-12-20T13:11:06.163Z,0.80
2018-12-20T13:13:33.652Z,0.97
2018-12-20T13:16:01.123Z,0.83
2018-12-20T13:18:28.596Z,0.60
2018-12-20T13:20:56.060Z,0.50
2018-12-20T13:23:25.614Z,0.80
2018-12-20T13:25:53.045Z,0.50
2018-12-20T13:28:20.500Z,0.80
2018-12-20T13:30:48.189Z,0.40
2018-12-20T13:33:15.631Z,0.60
2018-12-20T13:35:43.340Z,0.60
2018-12-20T13:38:10.805Z,0.50
2018-12-20T13:40:38.257Z,0.70
2018-12-20T13:43:05.763Z,0.50
2018-12-20T13:45:33.221Z,0.50
2018-12-20T13:48:01.945Z,0.90
2018-12-20T13:50:29.389Z,0.60
2018-12-20T13:52:56.836Z,0.80
2018-12-20T13:55:24.300Z,0.93
2018-12-20T13:57:51.850Z,0.80
2018-12-20T14:00:19.380Z,0.70
2018-12-20T14:02:46.829Z,0.60
2018-12-20T14:05:14.275Z,0.60
2018-12-20T14:07:41.790Z,0.53
2018-12-20T14:10:09.584Z,0.60
2018-12-20T14:12:37.045Z,0.70
2018-12-20T14:15:05.825Z,0.60
2018-12-20T14:17:33.308Z,0.67
2018-12-20T14:20:00.771Z,0.63
2018-12-20T14:25:01.973Z,0.50
2018-12-20T14:27:29.439Z,0.60
2018-12-20T14:29:56.920Z,0.43
2018-12-20T14:32:24.364Z,0.50
2018-12-20T14:34:51.824Z,0.50
2018-12-20T14:37:19.293Z,0.60
2018-12-20T14:39:46.964Z,0.60
2018-12-20T14:42:14.439Z,0.50
2018-12-20T14:44:42.120Z,0.60
2018-12-20T14:47:09.571Z,0.50
2018-12-20T14:49:37.043Z,0.60
2018-12-20T14:52:04.712Z,0.70
2018-12-20T14:54:32.181Z,0.70
2018-12-20T14:56:59.633Z,0.77
2018-12-20T14:59:27.100Z,0.50
2018-12-20T15:01:54.804Z,0.63
2018-12-20T15:04:22.273Z,1.00
2018-12-20T15:06:49.814Z,0.60
2018-12-20T15:09:17.404Z,1.17
2018-12-20T15:11:44.855Z,0.57
2018-12-20T15:14:12.353Z,0.60
2018-12-20T15:16:39.804Z,0.53
2018-12-20T15:19:07.261Z,0.60
2018-12-20T15:21:34.731Z,0.53
2018-12-20T15:24:02.204Z,0.80
2018-12-20T15:26:29.680Z,1.20
2018-12-20T15:28:57.148Z,0.70
2018-12-20T15:31:24.619Z,0.77
2018-12-20T15:33:52.101Z,1.03
2018-12-20T15:36:19.615Z,1.00
2018-12-20T15:38:47.080Z,2.93
2018-12-20T15:41:14.545Z,0.60
2018-12-20T15:43:43.769Z,0.80
2018-12-20T15:46:11.327Z,0.90
2018-12-20T15:48:38.773Z,0.70
2018-12-20T15:51:06.449Z,1.03
2018-12-20T15:53:34.116Z,1.03
2018-12-20T15:56:02.660Z,0.50
2018-12-20T15:58:30.268Z,0.70
2018-12-20T16:00:57.716Z,0.63
2018-12-20T16:03:25.206Z,1.40
2018-12-20T16:05:52.679Z,0.50
2018-12-20T16:08:20.156Z,0.73
2018-12-20T16:10:47.628Z,0.60
2018-12-20T16:13:15.541Z,0.70
2018-12-20T16:15:43.050Z,0.80
2018-12-20T16:18:10.505Z,0.70
2018-12-20T16:20:38.346Z,0.60
2018-12-20T16:23:05.803Z,1.03
2018-12-20T16:25:33.568Z,0.70
2018-12-20T16:28:01.064Z,0.60
2018-12-20T16:30:28.518Z,0.50
2018-12-20T16:32:56.039Z,0.90
2018-12-20T16:35:23.488Z,0.60
2018-12-20T16:37:51.203Z,0.50
2018-12-20T16:40:18.772Z,0.80
2018-12-20T16:42:46.296Z,0.53
2018-12-20T16:45:13.854Z,0.53
2018-12-20T16:47:41.309Z,0.50
2018-12-20T16:50:09.017Z,0.80
2018-12-20T16:52:36.476Z,0.73
2018-12-20T16:55:05.291Z,0.60
2018-12-20T16:57:32.768Z,0.60
2018-12-20T17:00:00.225Z,0.70
2018-12-20T17:02:27.912Z,0.83
2018-12-20T17:04:55.353Z,1.17
2018-12-20T17:07:22.836Z,0.60
2018-12-20T17:09:50.291Z,0.70
2018-12-20T17:12:17.960Z,1.00
2018-12-20T17:14:45.433Z,0.70
2018-12-20T17:17:12.884Z,0.60
2018-12-20T17:19:40.362Z,0.60
2018-12-20T17:22:08.031Z,0.80
2018-12-20T17:24:35.479Z,1.00
2018-12-20T17:27:02.948Z,0.70
2018-12-20T17:29:31.409Z,0.63
2018-12-20T17:31:58.884Z,0.70
2018-12-20T17:34:26.328Z,0.70
2018-12-20T17:36:53.824Z,0.60
2018-12-20T17:39:21.276Z,0.77
2018-12-20T17:41:48.745Z,0.70
2018-12-20T17:44:16.196Z,1.43
2018-12-20T17:46:43.692Z,1.30
2018-12-20T17:49:11.188Z,0.57
2018-12-20T17:51:38.730Z,0.70
2018-12-20T17:54:06.188Z,0.50
2018-12-20T17:56:33.910Z,1.17
2018-12-20T17:59:01.621Z,0.53
2018-12-20T18:01:29.095Z,0.60
2018-12-20T18:03:56.564Z,0.73
2018-12-20T18:06:24.029Z,0.50
2018-12-20T18:08:51.804Z,0.80
2018-12-20T18:11:19.260Z,0.50
2018-12-20T18:13:46.881Z,0.77
2018-12-20T18:16:14.592Z,0.70
2018-12-20T18:18:42.076Z,0.50
2018-12-20T18:21:09.544Z,1.00
2018-12-20T18:23:37.246Z,0.60
2018-12-20T18:26:04.978Z,0.67
2018-12-20T18:28:32.436Z,0.87
2018-12-20T18:30:59.931Z,0.50
2018-12-20T18:33:27.614Z,0.63
2018-12-20T18:35:55.084Z,0.60
2018-12-20T18:38:22.536Z,0.70
2018-12-20T18:40:50.052Z,0.70
2018-12-20T18:43:17.525Z,0.57
2018-12-20T18:45:44.980Z,0.73
2018-12-20T18:48:12.546Z,0.50
2018-12-20T18:50:39.991Z,0.73
2018-12-20T18:53:07.460Z,0.50
2018-12-20T18:55:34.912Z,0.60
2018-12-20T18:58:02.420Z,0.70
2018-12-20T19:00:29.892Z,0.57
2018-12-20T19:02:57.336Z,0.60
2018-12-20T19:05:24.805Z,0.60
2018-12-20T19:07:52.260Z,1.03
2018-12-20T19:10:19.712Z,0.70
2018-12-20T19:12:47.420Z,0.40
2018-12-20T19:15:15.104Z,0.70
2018-12-20T19:17:42.574Z,0.60
2018-12-20T19:20:15.982Z,0.80
2018-12-20T19:22:39.577Z,0.93
2018-12-20T19:25:07.264Z,0.57
2018-12-20T19:27:34.736Z,0.93
2018-12-20T19:30:02.188Z,0.87
2018-12-20T19:32:29.658Z,1.60
2018-12-20T19:34:57.356Z,0.70
2018-12-20T19:37:24.813Z,0.60
2018-12-20T19:39:54.271Z,0.90
2018-12-20T19:42:21.720Z,0.80
2018-12-20T19:44:49.193Z,0.90
2018-12-20T19:47:16.656Z,0.70
2018-12-20T19:49:44.108Z,0.60
2018-12-20T19:52:11.585Z,0.80
2018-12-20T19:54:39.035Z,0.90
2018-12-20T19:57:06.522Z,0.77
2018-12-20T19:59:38.700Z,0.70
2018-12-20T20:02:04.708Z,1.13
2018-12-20T20:04:32.528Z,0.80
2018-12-20T20:06:59.984Z,0.77
2018-12-20T20:09:27.448Z,1.80
2018-12-20T20:11:54.908Z,2.30
2018-12-20T20:14:22.381Z,1.97
2018-12-20T20:16:50.963Z,1.47
2018-12-20T20:19:18.733Z,1.83
2018-12-20T20:21:46.203Z,0.50
2018-12-20T20:24:13.672Z,0.60
2018-12-20T20:26:41.146Z,0.77
2018-12-20T20:29:08.600Z,0.83
2018-12-20T20:31:36.380Z,1.37
2018-12-20T20:34:04.147Z,0.97
2018-12-20T20:36:31.598Z,0.50
2018-12-20T20:39:02.165Z,0.80
2018-12-20T20:41:28.586Z,1.77
2018-12-20T20:43:56.040Z,0.97
2018-12-20T20:46:23.516Z,0.60
2018-12-20T20:48:50.968Z,0.60
2018-12-20T20:51:18.681Z,0.70
2018-12-20T20:53:46.136Z,0.90
2018-12-20T20:56:13.604Z,0.70
2018-12-20T20:58:41.057Z,1.23
2018-12-20T21:01:08.501Z,0.53
2018-12-20T21:03:35.965Z,0.50
2018-12-20T21:06:03.476Z,0.60
2018-12-20T21:08:31.110Z,0.70
2018-12-20T21:10:58.920Z,0.50
2018-12-20T21:13:26.384Z,0.67
2018-12-20T21:15:53.852Z,0.70
2018-12-20T21:18:21.520Z,0.70
2018-12-20T21:20:49.048Z,0.50
2018-12-20T21:23:16.511Z,0.70
2018-12-20T21:25:43.979Z,0.60
2018-12-20T21:28:11.432Z,0.60
2018-12-20T21:30:39.131Z,0.57
2018-12-20T21:33:06.616Z,0.50
2018-12-20T21:35:34.127Z,0.60
2018-12-20T21:38:01.597Z,0.60
2018-12-20T21:40:29.094Z,0.63
2018-12-20T21:45:17.815Z,0.73
2018-12-20T21:47:45.264Z,0.80
2018-12-20T21:50:12.736Z,0.50
2018-12-20T21:52:40.186Z,0.90
2018-12-20T21:55:07.635Z,0.90
2018-12-20T21:57:35.424Z,1.83
2018-12-20T22:00:03.936Z,1.13
2018-12-20T22:02:31.420Z,0.70
2018-12-20T22:04:58.868Z,0.50
2018-12-20T22:07:26.336Z,1.00
2018-12-20T22:09:53.817Z,1.67
2018-12-20T22:12:21.297Z,1.90
2018-12-20T22:14:48.984Z,0.60
2018-12-20T22:17:16.668Z,0.60
2018-12-20T22:19:44.361Z,0.40
2018-12-20T22:22:11.804Z,0.70
2018-12-20T22:24:39.256Z,0.80
2018-12-20T22:27:06.744Z,1.07
2018-12-20T22:29:34.193Z,0.50
2018-12-20T22:32:01.660Z,1.23
2018-12-20T22:34:29.141Z,0.70
2018-12-20T22:36:56.722Z,0.53
2018-12-20T22:39:24.192Z,0.90
2018-12-20T22:41:51.860Z,0.60
2018-12-20T22:44:19.612Z,0.80
2018-12-20T22:46:47.073Z,0.60
2018-12-20T22:49:14.761Z,0.70
2018-12-20T22:51:42.280Z,0.80
2018-12-20T22:54:09.744Z,0.87
2018-12-20T22:56:37.223Z,0.53
2018-12-20T22:59:04.672Z,0.50
2018-12-20T23:01:32.216Z,0.60
2018-12-20T23:03:59.735Z,0.50
2018-12-20T23:06:27.239Z,0.70
2018-12-20T23:08:54.752Z,0.57
2018-12-20T23:11:22.209Z,0.60
2018-12-20T23:13:51.446Z,1.13
2018-12-20T23:16:18.906Z,0.90
2018-12-20T23:18:46.368Z,0.60
2018-12-20T23:21:13.820Z,0.50
2018-12-20T23:23:41.292Z,0.90
2018-12-20T23:26:08.744Z,0.50
2018-12-20T23:28:36.448Z,0.90
2018-12-20T23:31:03.944Z,0.70
2018-12-20T23:33:31.664Z,0.60
2018-12-20T23:35:59.110Z,0.73
2018-12-20T23:38:26.571Z,0.70
2018-12-20T23:40:55.168Z,0.47
2018-12-20T23:43:22.634Z,0.50
2018-12-20T23:45:50.086Z,0.70
2018-12-20T23:48:17.664Z,0.50
2018-12-20T23:50:45.193Z,0.50
2018-12-20T23:53:12.672Z,0.50
2018-12-20T23:55:40.133Z,0.50
2018-12-20T23:58:07.629Z,0.50
